sensor_id;sensor_type;location;lat;lon;timestamp;pressure;altitude;pressure_sealevel;temperature;humidity
81379;BME280;70830;42.290;-71.354;2023-12-20T00:01:39;101497.63;;;3.65;50.74
81379;BME280;70830;42.290;-71.354;2023-12-20T00:04:06;101500.22;;;3.60;50.45
81379;BME280;70830;42.290;-71.354;2023-12-20T00:06:32;101497.63;;;3.56;50.80
81379;BME280;70830;42.290;-71.354;2023-12-20T00:08:58;101497.63;;;3.56;50.47
81379;BME280;70830;42.290;-71.354;2023-12-20T00:11:24;101497.63;;;3.54;50.40
81379;BME280;70830;42.290;-71.354;2023-12-20T00:13:50;101501.06;;;3.49;50.60
81379;BME280;70830;42.290;-71.354;2023-12-20T00:16:17;101516.75;;;3.46;49.56
81379;BME280;70830;42.290;-71.354;2023-12-20T00:18:43;101516.72;;;3.38;50.67
81379;BME280;70830;42.290;-71.354;2023-12-20T00:21:09;101514.09;;;3.34;50.48
81379;BME280;70830;42.290;-71.354;2023-12-20T00:23:35;101525.41;;;3.30;50.70
81379;BME280;70830;42.290;-71.354;2023-12-20T00:26:00;101528.00;;;3.25;50.37
81379;BME280;70830;42.290;-71.354;2023-12-20T00:28:26;101525.38;;;3.21;50.42
81379;BME280;70830;42.290;-71.354;2023-12-20T00:30:52;101540.13;;;3.19;50.77
81379;BME280;70830;42.290;-71.354;2023-12-20T00:33:18;101551.41;;;3.15;51.08
81379;BME280;70830;42.290;-71.354;2023-12-20T00:35:44;101529.66;;;2.99;51.40
81379;BME280;70830;42.290;-71.354;2023-12-20T00:38:10;101557.47;;;3.09;51.70
81379;BME280;70830;42.290;-71.354;2023-12-20T00:40:37;101527.88;;;2.93;51.34
81379;BME280;70830;42.290;-71.354;2023-12-20T00:43:03;101551.34;;;2.98;51.50
81379;BME280;70830;42.290;-71.354;2023-12-20T00:45:29;101548.72;;;2.90;51.25
81379;BME280;70830;42.290;-71.354;2023-12-20T00:47:55;101553.91;;;2.87;51.41
81379;BME280;70830;42.290;-71.354;2023-12-20T00:50:21;101556.53;;;2.87;51.42
81379;BME280;70830;42.290;-71.354;2023-12-20T00:52:47;101569.53;;;2.89;51.27
81379;BME280;70830;42.290;-71.354;2023-12-20T00:55:13;101573.03;;;2.88;51.03
81379;BME280;70830;42.290;-71.354;2023-12-20T00:57:39;101580.81;;;2.83;51.08
81379;BME280;70830;42.290;-71.354;2023-12-20T01:00:06;101582.53;;;2.83;51.01
81379;BME280;70830;42.290;-71.354;2023-12-20T01:02:35;101599.91;;;2.79;50.90
81379;BME280;70830;42.290;-71.354;2023-12-20T01:05:01;101612.88;;;2.78;51.11
81379;BME280;70830;42.290;-71.354;2023-12-20T01:07:28;101605.94;;;2.71;51.25
81379;BME280;70830;42.290;-71.354;2023-12-20T01:09:54;101605.03;;;2.66;51.75
81379;BME280;70830;42.290;-71.354;2023-12-20T01:12:20;101605.88;;;2.63;51.78
81379;BME280;70830;42.290;-71.354;2023-12-20T01:14:46;101608.47;;;2.63;51.28
81379;BME280;70830;42.290;-71.354;2023-12-20T01:17:12;101612.81;;;2.60;51.41
81379;BME280;70830;42.290;-71.354;2023-12-20T01:19:38;101611.00;;;2.51;51.38
81379;BME280;70830;42.290;-71.354;2023-12-20T01:22:04;101605.81;;;2.53;51.97
81379;BME280;70830;42.290;-71.354;2023-12-20T01:24:30;101623.16;;;2.54;51.60
81379;BME280;70830;42.290;-71.354;2023-12-20T01:26:56;101614.47;;;2.52;51.33
81379;BME280;70830;42.290;-71.354;2023-12-20T01:29:22;101627.53;;;2.55;51.73
81379;BME280;70830;42.290;-71.354;2023-12-20T01:31:48;101637.06;;;2.53;51.93
81379;BME280;70830;42.290;-71.354;2023-12-20T01:34:14;101624.88;;;2.49;51.73
81379;BME280;70830;42.290;-71.354;2023-12-20T01:36:39;101619.66;;;2.47;52.07
81379;BME280;70830;42.290;-71.354;2023-12-20T01:39:05;101629.19;;;2.45;51.55
81379;BME280;70830;42.290;-71.354;2023-12-20T01:41:31;101643.06;;;2.44;52.17
81379;BME280;70830;42.290;-71.354;2023-12-20T01:43:57;101643.84;;;2.36;52.07
81379;BME280;70830;42.290;-71.354;2023-12-20T01:46:25;101648.19;;;2.35;52.25
81379;BME280;70830;42.290;-71.354;2023-12-20T01:48:51;101633.41;;;2.28;52.01
81379;BME280;70830;42.290;-71.354;2023-12-20T01:51:18;101643.75;;;2.23;52.50
81379;BME280;70830;42.290;-71.354;2023-12-20T01:53:45;101641.16;;;2.25;52.27
81379;BME280;70830;42.290;-71.354;2023-12-20T01:56:12;101646.38;;;2.22;52.60
81379;BME280;70830;42.290;-71.354;2023-12-20T01:58:43;101635.91;;;2.17;52.90
81379;BME280;70830;42.290;-71.354;2023-12-20T02:01:11;101635.88;;;2.16;52.52
81379;BME280;70830;42.290;-71.354;2023-12-20T02:03:37;101625.44;;;2.10;52.73
81379;BME280;70830;42.290;-71.354;2023-12-20T02:06:04;101630.66;;;2.10;52.93
81379;BME280;70830;42.290;-71.354;2023-12-20T02:08:30;101628.88;;;2.06;53.11
81379;BME280;70830;42.290;-71.354;2023-12-20T02:10:56;101640.13;;;2.03;52.71
81379;BME280;70830;42.290;-71.354;2023-12-20T02:13:22;101630.59;;;2.04;52.74
81379;BME280;70830;42.290;-71.354;2023-12-20T02:15:48;101641.84;;;2.03;52.88
81379;BME280;70830;42.290;-71.354;2023-12-20T02:18:14;101638.38;;;2.01;52.69
81379;BME280;70830;42.290;-71.354;2023-12-20T02:20:42;101623.56;;;1.91;52.76
81379;BME280;70830;42.290;-71.354;2023-12-20T02:23:08;101626.16;;;1.92;52.55
81379;BME280;70830;42.290;-71.354;2023-12-20T02:25:35;101640.06;;;1.97;52.99
81379;BME280;70830;42.290;-71.354;2023-12-20T02:28:02;101637.44;;;1.93;53.69
81379;BME280;70830;42.290;-71.354;2023-12-20T02:30:28;101656.50;;;1.95;53.36
81379;BME280;70830;42.290;-71.354;2023-12-20T02:32:54;101635.59;;;1.81;52.76
81379;BME280;70830;42.290;-71.354;2023-12-20T02:35:20;101639.06;;;1.82;52.91
81379;BME280;70830;42.290;-71.354;2023-12-20T02:37:46;101649.47;;;1.85;53.47
81379;BME280;70830;42.290;-71.354;2023-12-20T02:40:12;101654.66;;;1.83;53.55
81379;BME280;70830;42.290;-71.354;2023-12-20T02:42:38;101657.22;;;1.80;53.41
81379;BME280;70830;42.290;-71.354;2023-12-20T02:45:04;101653.72;;;1.75;53.08
81379;BME280;70830;42.290;-71.354;2023-12-20T02:47:30;101651.03;;;1.68;53.48
81379;BME280;70830;42.290;-71.354;2023-12-20T02:49:56;101666.69;;;1.74;53.40
81379;BME280;70830;42.290;-71.354;2023-12-20T02:52:23;101670.94;;;1.67;53.70
81379;BME280;70830;42.290;-71.354;2023-12-20T02:54:49;101676.09;;;1.63;53.96
81379;BME280;70830;42.290;-71.354;2023-12-20T02:57:15;101677.75;;;1.56;53.42
81379;BME280;70830;42.290;-71.354;2023-12-20T02:59:41;101681.28;;;1.60;53.42
81379;BME280;70830;42.290;-71.354;2023-12-20T03:02:07;101685.53;;;1.55;53.66
81379;BME280;70830;42.290;-71.354;2023-12-20T03:04:33;101679.47;;;1.53;54.09
81379;BME280;70830;42.290;-71.354;2023-12-20T03:06:59;101683.72;;;1.46;53.86
81379;BME280;70830;42.290;-71.354;2023-12-20T03:09:25;101666.31;;;1.39;54.55
81379;BME280;70830;42.290;-71.354;2023-12-20T03:11:51;101680.19;;;1.42;54.57
81379;BME280;70830;42.290;-71.354;2023-12-20T03:14:17;101674.06;;;1.36;54.95
81379;BME280;70830;42.290;-71.354;2023-12-20T03:16:49;101680.06;;;1.33;54.63
81379;BME280;70830;42.290;-71.354;2023-12-20T03:19:15;101670.50;;;1.29;54.89
81379;BME280;70830;42.290;-71.354;2023-12-20T03:21:41;101686.13;;;1.31;54.40
81379;BME280;70830;42.290;-71.354;2023-12-20T03:24:07;101685.19;;;1.24;54.77
81379;BME280;70830;42.290;-71.354;2023-12-20T03:26:33;101693.81;;;1.23;54.12
81379;BME280;70830;42.290;-71.354;2023-12-20T03:28:59;101709.41;;;1.25;54.62
81379;BME280;70830;42.290;-71.354;2023-12-20T03:31:25;101715.44;;;1.22;55.33
81379;BME280;70830;42.290;-71.354;2023-12-20T03:33:50;101715.41;;;1.19;55.28
81379;BME280;70830;42.290;-71.354;2023-12-20T03:36:19;101711.06;;;1.17;54.73
81379;BME280;70830;42.290;-71.354;2023-12-20T03:38:45;101705.78;;;1.12;55.21
81379;BME280;70830;42.290;-71.354;2023-12-20T03:41:11;101690.03;;;1.00;54.82
81379;BME280;70830;42.290;-71.354;2023-12-20T03:43:37;101704.00;;;1.08;55.89
81379;BME280;70830;42.290;-71.354;2023-12-20T03:46:03;101707.38;;;1.03;55.43
81379;BME280;70830;42.290;-71.354;2023-12-20T03:48:30;101700.41;;;1.00;55.33
81379;BME280;70830;42.290;-71.354;2023-12-20T03:50:57;101693.44;;;0.96;55.24
81379;BME280;70830;42.290;-71.354;2023-12-20T03:53:23;101703.00;;;0.97;55.45
81379;BME280;70830;42.290;-71.354;2023-12-20T03:55:49;101709.91;;;0.98;55.07
81379;BME280;70830;42.290;-71.354;2023-12-20T03:58:14;101701.22;;;0.95;55.42
81379;BME280;70830;42.290;-71.354;2023-12-20T04:00:40;101701.16;;;0.90;55.40
81379;BME280;70830;42.290;-71.354;2023-12-20T04:03:07;101719.31;;;0.90;55.31
81379;BME280;70830;42.290;-71.354;2023-12-20T04:05:33;101721.06;;;0.91;56.01
81379;BME280;70830;42.290;-71.354;2023-12-20T04:08:01;101727.94;;;0.89;55.78
81379;BME280;70830;42.290;-71.354;2023-12-20T04:10:27;101733.13;;;0.88;55.86
81379;BME280;70830;42.290;-71.354;2023-12-20T04:12:53;101703.53;;;0.77;55.68
81379;BME280;70830;42.290;-71.354;2023-12-20T04:15:20;101726.97;;;0.80;55.95
81379;BME280;70830;42.290;-71.354;2023-12-20T04:17:46;101715.56;;;0.71;56.07
81379;BME280;70830;42.290;-71.354;2023-12-20T04:20:12;101732.06;;;0.75;56.11
81379;BME280;70830;42.290;-71.354;2023-12-20T04:22:38;101724.13;;;0.64;56.06
81379;BME280;70830;42.290;-71.354;2023-12-20T04:25:04;101721.50;;;0.63;56.60
81379;BME280;70830;42.290;-71.354;2023-12-20T04:27:30;101724.97;;;0.62;56.44
81379;BME280;70830;42.290;-71.354;2023-12-20T04:29:56;101721.41;;;0.58;56.40
81379;BME280;70830;42.290;-71.354;2023-12-20T04:32:22;101710.06;;;0.52;57.07
81379;BME280;70830;42.290;-71.354;2023-12-20T04:34:48;101711.78;;;0.51;56.97
81379;BME280;70830;42.290;-71.354;2023-12-20T04:37:14;101717.03;;;0.53;56.76
81379;BME280;70830;42.290;-71.354;2023-12-20T04:39:40;101717.84;;;0.50;56.75
81379;BME280;70830;42.290;-71.354;2023-12-20T04:42:07;101716.91;;;0.47;57.36
81379;BME280;70830;42.290;-71.354;2023-12-20T04:44:33;101719.41;;;0.41;57.65
81379;BME280;70830;42.290;-71.354;2023-12-20T04:46:58;101729.84;;;0.44;57.20
81379;BME280;70830;42.290;-71.354;2023-12-20T04:49:25;101726.22;;;0.36;57.56
81379;BME280;70830;42.290;-71.354;2023-12-20T04:51:51;101731.47;;;0.39;57.82
81379;BME280;70830;42.290;-71.354;2023-12-20T04:54:17;101708.78;;;0.26;57.30
81379;BME280;70830;42.290;-71.354;2023-12-20T04:56:43;101726.19;;;0.33;57.33
81379;BME280;70830;42.290;-71.354;2023-12-20T04:59:09;101739.16;;;0.33;58.09
81379;BME280;70830;42.290;-71.354;2023-12-20T05:01:34;101729.59;;;0.29;57.97
81379;BME280;70830;42.290;-71.354;2023-12-20T05:04:00;101733.91;;;0.30;57.56
81379;BME280;70830;42.290;-71.354;2023-12-20T05:06:26;101726.06;;;0.25;57.57
81379;BME280;70830;42.290;-71.354;2023-12-20T05:08:52;101731.31;;;0.28;57.30
81379;BME280;70830;42.290;-71.354;2023-12-20T05:11:18;101722.50;;;0.20;58.17
81379;BME280;70830;42.290;-71.354;2023-12-20T05:13:44;101722.56;;;0.23;58.17
81379;BME280;70830;42.290;-71.354;2023-12-20T05:16:10;101719.00;;;0.18;58.00
81379;BME280;70830;42.290;-71.354;2023-12-20T05:18:36;101719.88;;;0.19;58.55
81379;BME280;70830;42.290;-71.354;2023-12-20T05:21:02;101721.59;;;0.17;58.16
81379;BME280;70830;42.290;-71.354;2023-12-20T05:23:27;101722.47;;;0.19;58.27
81379;BME280;70830;42.290;-71.354;2023-12-20T05:25:53;101716.38;;;0.15;58.44
81379;BME280;70830;42.290;-71.354;2023-12-20T05:28:19;101730.19;;;0.16;58.77
81379;BME280;70830;42.290;-71.354;2023-12-20T05:30:46;101718.75;;;0.05;58.96
81379;BME280;70830;42.290;-71.354;2023-12-20T05:33:12;101723.13;;;0.06;58.83
81379;BME280;70830;42.290;-71.354;2023-12-20T05:35:38;101730.06;;;0.08;59.15
81379;BME280;70830;42.290;-71.354;2023-12-20T05:38:04;101728.28;;;0.04;59.30
81379;BME280;70830;42.290;-71.354;2023-12-20T05:40:30;101723.88;;;0.00;58.84
81379;BME280;70830;42.290;-71.354;2023-12-20T05:42:56;101738.66;;;0.04;58.96
81379;BME280;70830;42.290;-71.354;2023-12-20T05:45:22;101738.56;;;-0.01;59.20
81379;BME280;70830;42.290;-71.354;2023-12-20T05:47:48;101728.94;;;-0.06;59.45
81379;BME280;70830;42.290;-71.354;2023-12-20T05:50:14;101744.53;;;-0.05;59.52
81379;BME280;70830;42.290;-71.354;2023-12-20T05:52:40;101761.72;;;-0.08;59.45
81379;BME280;70830;42.290;-71.354;2023-12-20T05:55:06;101746.97;;;-0.14;59.78
81379;BME280;70830;42.290;-71.354;2023-12-20T05:57:32;101758.13;;;-0.16;60.00
81379;BME280;70830;42.290;-71.354;2023-12-20T05:59:58;101756.34;;;-0.19;59.51
81379;BME280;70830;42.290;-71.354;2023-12-20T06:02:24;101761.53;;;-0.19;59.52
81379;BME280;70830;42.290;-71.354;2023-12-20T06:04:50;101753.66;;;-0.25;59.63
81379;BME280;70830;42.290;-71.354;2023-12-20T06:07:16;101759.69;;;-0.24;60.25
81379;BME280;70830;42.290;-71.354;2023-12-20T06:09:42;101754.38;;;-0.30;60.48
81379;BME280;70830;42.290;-71.354;2023-12-20T06:12:08;101756.81;;;-0.38;60.12
81379;BME280;70830;42.290;-71.354;2023-12-20T06:14:35;101762.94;;;-0.36;60.23
81379;BME280;70830;42.290;-71.354;2023-12-20T06:17:00;101767.31;;;-0.32;60.51
81379;BME280;70830;42.290;-71.354;2023-12-20T06:19:27;101768.09;;;-0.36;60.43
81379;BME280;70830;42.290;-71.354;2023-12-20T06:21:53;101780.13;;;-0.38;60.58
81379;BME280;70830;42.290;-71.354;2023-12-20T06:24:19;101774.00;;;-0.43;61.01
81379;BME280;70830;42.290;-71.354;2023-12-20T06:26:45;101785.19;;;-0.44;60.86
81379;BME280;70830;42.290;-71.354;2023-12-20T06:29:12;101780.81;;;-0.46;61.21
81379;BME280;70830;42.290;-71.354;2023-12-20T06:31:38;101794.56;;;-0.49;60.92
81379;BME280;70830;42.290;-71.354;2023-12-20T06:34:04;101790.97;;;-0.55;60.99
81379;BME280;70830;42.290;-71.354;2023-12-20T06:36:29;101796.09;;;-0.58;61.44
81379;BME280;70830;42.290;-71.354;2023-12-20T06:38:55;101799.50;;;-0.61;61.68
81379;BME280;70830;42.290;-71.354;2023-12-20T06:41:21;101801.16;;;-0.64;61.11
81379;BME280;70830;42.290;-71.354;2023-12-20T06:43:50;101802.88;;;-0.65;61.81
81379;BME280;70830;42.290;-71.354;2023-12-20T06:46:15;101799.31;;;-0.68;61.58
81379;BME280;70830;42.290;-71.354;2023-12-20T06:48:42;101788.84;;;-0.75;62.66
81379;BME280;70830;42.290;-71.354;2023-12-20T06:51:12;101787.03;;;-0.77;61.96
81379;BME280;70830;42.290;-71.354;2023-12-20T06:53:38;101799.09;;;-0.79;62.55
81379;BME280;70830;42.290;-71.354;2023-12-20T06:56:04;101802.44;;;-0.83;62.25
81379;BME280;70830;42.290;-71.354;2023-12-20T06:58:30;101801.44;;;-0.90;62.67
81379;BME280;70830;42.290;-71.354;2023-12-20T07:00:56;101799.56;;;-0.95;62.66
81379;BME280;70830;42.290;-71.354;2023-12-20T07:03:22;101805.72;;;-0.90;62.50
81379;BME280;70830;42.290;-71.354;2023-12-20T07:05:48;101810.88;;;-0.92;63.11
81379;BME280;70830;42.290;-71.354;2023-12-20T07:08:14;101804.53;;;-1.04;62.95
81379;BME280;70830;42.290;-71.354;2023-12-20T07:10:41;101798.38;;;-1.09;62.93
81379;BME280;70830;42.290;-71.354;2023-12-20T07:13:07;101793.94;;;-1.15;63.61
81379;BME280;70830;42.290;-71.354;2023-12-20T07:15:33;101809.47;;;-1.13;63.46
81379;BME280;70830;42.290;-71.354;2023-12-20T07:17:59;101823.25;;;-1.16;63.82
81379;BME280;70830;42.290;-71.354;2023-12-20T07:20:26;101820.44;;;-1.23;63.61
81379;BME280;70830;42.290;-71.354;2023-12-20T07:22:52;101812.47;;;-1.32;63.92
81379;BME280;70830;42.290;-71.354;2023-12-20T07:25:17;101817.66;;;-1.31;63.95
81379;BME280;70830;42.290;-71.354;2023-12-20T07:27:43;101828.88;;;-1.32;64.22
81379;BME280;70830;42.290;-71.354;2023-12-20T07:30:10;101825.25;;;-1.38;65.09
81379;BME280;70830;42.290;-71.354;2023-12-20T07:32:36;101829.56;;;-1.37;64.35
81379;BME280;70830;42.290;-71.354;2023-12-20T07:35:02;101831.13;;;-1.44;64.42
81379;BME280;70830;42.290;-71.354;2023-12-20T07:37:28;101824.16;;;-1.47;65.21
81379;BME280;70830;42.290;-71.354;2023-12-20T07:39:54;101824.16;;;-1.47;65.17
81379;BME280;70830;42.290;-71.354;2023-12-20T07:42:20;101823.44;;;-1.42;64.79
81379;BME280;70830;42.290;-71.354;2023-12-20T07:44:47;101820.53;;;-1.53;64.91
81379;BME280;70830;42.290;-71.354;2023-12-20T07:47:13;101822.28;;;-1.54;65.68
81379;BME280;70830;42.290;-71.354;2023-12-20T07:49:42;101832.53;;;-1.57;65.31
81379;BME280;70830;42.290;-71.354;2023-12-20T07:52:08;101814.09;;;-1.69;65.57
81379;BME280;70830;42.290;-71.354;2023-12-20T07:54:34;101841.19;;;-1.55;65.83
81379;BME280;70830;42.290;-71.354;2023-12-20T07:57:00;101828.81;;;-1.66;65.92
81379;BME280;70830;42.290;-71.354;2023-12-20T07:59:26;101842.72;;;-1.63;65.63
81379;BME280;70830;42.290;-71.354;2023-12-20T08:01:52;101842.72;;;-1.63;65.83
81379;BME280;70830;42.290;-71.354;2023-12-20T08:04:18;101849.59;;;-1.63;66.10
81379;BME280;70830;42.290;-71.354;2023-12-20T08:06:44;101858.22;;;-1.63;65.86
81379;BME280;70830;42.290;-71.354;2023-12-20T08:09:09;101852.09;;;-1.66;66.43
81379;BME280;70830;42.290;-71.354;2023-12-20T08:11:35;101853.72;;;-1.70;66.64
81379;BME280;70830;42.290;-71.354;2023-12-20T08:14:01;101857.25;;;-1.66;66.73
81379;BME280;70830;42.290;-71.354;2023-12-20T08:16:27;101861.47;;;-1.70;67.02
81379;BME280;70830;42.290;-71.354;2023-12-20T08:18:53;101863.97;;;-1.73;67.08
81379;BME280;70830;42.290;-71.354;2023-12-20T08:21:19;101874.31;;;-1.73;67.09
81379;BME280;70830;42.290;-71.354;2023-12-20T08:23:47;101875.28;;;-1.69;67.27
81379;BME280;70830;42.290;-71.354;2023-12-20T08:26:13;101879.41;;;-1.76;67.13
81379;BME280;70830;42.290;-71.354;2023-12-20T08:28:39;101887.22;;;-1.73;67.39
81379;BME280;70830;42.290;-71.354;2023-12-20T08:31:05;101872.47;;;-1.77;67.27
81379;BME280;70830;42.290;-71.354;2023-12-20T08:33:31;101872.44;;;-1.78;67.63
81379;BME280;70830;42.290;-71.354;2023-12-20T08:35:57;101882.94;;;-1.72;67.40
81379;BME280;70830;42.290;-71.354;2023-12-20T08:38:23;101885.66;;;-1.68;67.26
81379;BME280;70830;42.290;-71.354;2023-12-20T08:40:49;101873.44;;;-1.73;67.23
81379;BME280;70830;42.290;-71.354;2023-12-20T08:43:15;101888.25;;;-1.68;66.88
81379;BME280;70830;42.290;-71.354;2023-12-20T08:45:41;101882.22;;;-1.67;67.64
81379;BME280;70830;42.290;-71.354;2023-12-20T08:48:07;101861.44;;;-1.71;67.72
81379;BME280;70830;42.290;-71.354;2023-12-20T08:50:33;101882.44;;;-1.59;67.11
81379;BME280;70830;42.290;-71.354;2023-12-20T08:52:59;101865.06;;;-1.65;67.67
81379;BME280;70830;42.290;-71.354;2023-12-20T08:55:25;101882.44;;;-1.59;67.83
81379;BME280;70830;42.290;-71.354;2023-12-20T08:57:52;101878.94;;;-1.61;67.58
81379;BME280;70830;42.290;-71.354;2023-12-20T09:00:18;101870.19;;;-1.66;67.73
81379;BME280;70830;42.290;-71.354;2023-12-20T09:02:46;101890.31;;;-1.55;67.29
81379;BME280;70830;42.290;-71.354;2023-12-20T09:05:12;101898.13;;;-1.53;67.70
81379;BME280;70830;42.290;-71.354;2023-12-20T09:07:38;101893.75;;;-1.56;67.65
81379;BME280;70830;42.290;-71.354;2023-12-20T09:10:04;101893.00;;;-1.52;68.03
81379;BME280;70830;42.290;-71.354;2023-12-20T09:12:30;101891.25;;;-1.51;67.80
81379;BME280;70830;42.290;-71.354;2023-12-20T09:14:56;101900.75;;;-1.52;67.14
81379;BME280;70830;42.290;-71.354;2023-12-20T09:17:21;101893.81;;;-1.53;67.45
81379;BME280;70830;42.290;-71.354;2023-12-20T09:19:48;101894.81;;;-1.49;68.01
81379;BME280;70830;42.290;-71.354;2023-12-20T09:22:14;101877.31;;;-1.58;67.60
81379;BME280;70830;42.290;-71.354;2023-12-20T09:24:41;101906.06;;;-1.47;67.15
81379;BME280;70830;42.290;-71.354;2023-12-20T09:27:06;101896.44;;;-1.51;67.70
81379;BME280;70830;42.290;-71.354;2023-12-20T09:29:32;101902.56;;;-1.49;67.04
81379;BME280;70830;42.290;-71.354;2023-12-20T09:31:58;101910.38;;;-1.46;67.30
81379;BME280;70830;42.290;-71.354;2023-12-20T09:34:24;101914.50;;;-1.53;67.50
81379;BME280;70830;42.290;-71.354;2023-12-20T09:36:52;101922.44;;;-1.47;67.12
81379;BME280;70830;42.290;-71.354;2023-12-20T09:39:18;101911.75;;;-1.59;67.56
81379;BME280;70830;42.290;-71.354;2023-12-20T09:41:51;101938.81;;;-1.46;67.53
81379;BME280;70830;42.290;-71.354;2023-12-20T09:44:22;101919.69;;;-1.53;67.03
81379;BME280;70830;42.290;-71.354;2023-12-20T09:46:49;101935.34;;;-1.47;67.53
81379;BME280;70830;42.290;-71.354;2023-12-20T09:49:19;101929.13;;;-1.53;67.08
81379;BME280;70830;42.290;-71.354;2023-12-20T09:51:47;101935.19;;;-1.53;67.02
81379;BME280;70830;42.290;-71.354;2023-12-20T09:54:17;101936.84;;;-1.56;67.78
81379;BME280;70830;42.290;-71.354;2023-12-20T09:56:47;101938.56;;;-1.55;67.57
81379;BME280;70830;42.290;-71.354;2023-12-20T09:59:13;101942.88;;;-1.56;67.59
81379;BME280;70830;42.290;-71.354;2023-12-20T10:01:40;101947.22;;;-1.55;67.92
81379;BME280;70830;42.290;-71.354;2023-12-20T10:04:08;101945.38;;;-1.59;68.02
81379;BME280;70830;42.290;-71.354;2023-12-20T10:06:44;101945.38;;;-1.59;68.36
81379;BME280;70830;42.290;-71.354;2023-12-20T10:09:11;101964.50;;;-1.54;68.15
81379;BME280;70830;42.290;-71.354;2023-12-20T10:11:38;101957.44;;;-1.58;68.27
81379;BME280;70830;42.290;-71.354;2023-12-20T10:14:05;101953.88;;;-1.63;68.29
81379;BME280;70830;42.290;-71.354;2023-12-20T10:16:32;101979.03;;;-1.57;68.28
81379;BME280;70830;42.290;-71.354;2023-12-20T10:18:58;101963.34;;;-1.63;67.66
81379;BME280;70830;42.290;-71.354;2023-12-20T10:21:25;101979.88;;;-1.58;67.67
81379;BME280;70830;42.290;-71.354;2023-12-20T10:23:55;101974.69;;;-1.58;67.92
81379;BME280;70830;42.290;-71.354;2023-12-20T10:26:25;101978.09;;;-1.59;68.47
81379;BME280;70830;42.290;-71.354;2023-12-20T10:28:56;101980.59;;;-1.62;68.12
81379;BME280;70830;42.290;-71.354;2023-12-20T10:31:32;101985.75;;;-1.62;68.23
81379;BME280;70830;42.290;-71.354;2023-12-20T10:34:01;101987.38;;;-1.67;68.56
81379;BME280;70830;42.290;-71.354;2023-12-20T10:36:33;101991.69;;;-1.66;68.14
81379;BME280;70830;42.290;-71.354;2023-12-20T10:39:00;101992.47;;;-1.69;68.20
81379;BME280;70830;42.290;-71.354;2023-12-20T10:41:31;101995.94;;;-1.68;68.04
81379;BME280;70830;42.290;-71.354;2023-12-20T10:44:02;101994.13;;;-1.71;68.48
81379;BME280;70830;42.290;-71.354;2023-12-20T10:46:29;101987.13;;;-1.75;67.93
81379;BME280;70830;42.290;-71.354;2023-12-20T10:48:56;101984.56;;;-1.73;68.07
81379;BME280;70830;42.290;-71.354;2023-12-20T10:51:23;101975.59;;;-1.86;68.02
81379;BME280;70830;42.290;-71.354;2023-12-20T10:53:53;102003.47;;;-1.76;67.76
81379;BME280;70830;42.290;-71.354;2023-12-20T10:56:19;102011.31;;;-1.73;68.12
81379;BME280;70830;42.290;-71.354;2023-12-20T10:58:47;102007.75;;;-1.76;67.57
81379;BME280;70830;42.290;-71.354;2023-12-20T11:01:16;102023.41;;;-1.72;67.16
81379;BME280;70830;42.290;-71.354;2023-12-20T11:03:53;102011.88;;;-1.83;67.35
81379;BME280;70830;42.290;-71.354;2023-12-20T11:09:23;102032.00;;;-1.73;67.30
81379;BME280;70830;42.290;-71.354;2023-12-20T11:15:12;102021.47;;;-1.79;66.68
81379;BME280;70830;42.290;-71.354;2023-12-20T11:17:14;102031.91;;;-1.76;66.83
81379;BME280;70830;42.290;-71.354;2023-12-20T11:22:27;102041.38;;;-1.76;66.73
81379;BME280;70830;42.290;-71.354;2023-12-20T11:25:02;102042.16;;;-1.79;66.68
81379;BME280;70830;42.290;-71.354;2023-12-20T11:27:30;102058.56;;;-1.77;66.08
81379;BME280;70830;42.290;-71.354;2023-12-20T11:29:57;102045.47;;;-1.83;66.29
81379;BME280;70830;42.290;-71.354;2023-12-20T11:34:59;102075.66;;;-1.82;66.81
81379;BME280;70830;42.290;-71.354;2023-12-20T11:37:30;102072.09;;;-1.85;66.24
81379;BME280;70830;42.290;-71.354;2023-12-20T11:40:06;102059.66;;;-1.97;66.49
81379;BME280;70830;42.290;-71.354;2023-12-20T11:42:50;102071.03;;;-1.92;66.24
81379;BME280;70830;42.290;-71.354;2023-12-20T11:45:24;102080.63;;;-1.88;65.65
81379;BME280;70830;42.290;-71.354;2023-12-20T11:47:51;102069.34;;;-1.91;65.90
81379;BME280;70830;42.290;-71.354;2023-12-20T11:50:19;102083.19;;;-1.89;65.54
81379;BME280;70830;42.290;-71.354;2023-12-20T11:52:45;102076.28;;;-1.89;65.59
81379;BME280;70830;42.290;-71.354;2023-12-20T11:55:11;102094.44;;;-1.87;65.46
81379;BME280;70830;42.290;-71.354;2023-12-20T11:57:38;102069.34;;;-1.91;65.35
81379;BME280;70830;42.290;-71.354;2023-12-20T12:00:04;102079.97;;;-1.82;65.03
81379;BME280;70830;42.290;-71.354;2023-12-20T12:02:31;102073.03;;;-1.83;65.01
81379;BME280;70830;42.290;-71.354;2023-12-20T12:04:59;102066.16;;;-1.83;65.28
81379;BME280;70830;42.290;-71.354;2023-12-20T12:07:25;102074.97;;;-1.76;64.76
81379;BME280;70830;42.290;-71.354;2023-12-20T12:09:52;102074.91;;;-1.78;64.94
81379;BME280;70830;42.290;-71.354;2023-12-20T12:12:18;102082.88;;;-1.72;64.71
81379;BME280;70830;42.290;-71.354;2023-12-20T12:14:45;102083.75;;;-1.71;64.98
81379;BME280;70830;42.290;-71.354;2023-12-20T12:17:14;102083.81;;;-1.68;65.02
81379;BME280;70830;42.290;-71.354;2023-12-20T12:19:42;102084.72;;;-1.68;64.54
81379;BME280;70830;42.290;-71.354;2023-12-20T12:22:14;102072.59;;;-1.69;64.04
81379;BME280;70830;42.290;-71.354;2023-12-20T12:24:43;102083.88;;;-1.67;64.56
81379;BME280;70830;42.290;-71.354;2023-12-20T12:27:10;102097.91;;;-1.59;64.24
81379;BME280;70830;42.290;-71.354;2023-12-20T12:29:37;102098.84;;;-1.57;63.77
81379;BME280;70830;42.290;-71.354;2023-12-20T12:32:07;102103.72;;;-1.37;64.34
81379;BME280;70830;42.290;-71.354;2023-12-20T12:34:34;102086.06;;;-0.93;63.76
81379;BME280;70830;42.290;-71.354;2023-12-20T12:37:01;102086.13;;;-0.26;62.81
81379;BME280;70830;42.290;-71.354;2023-12-20T12:39:27;102103.50;;;0.50;61.80
81379;BME280;70830;42.290;-71.354;2023-12-20T12:41:53;102104.03;;;1.14;60.52
81379;BME280;70830;42.290;-71.354;2023-12-20T12:44:19;102091.94;;;1.63;58.61